createdAt,value
2022-07-30T01:48:56.036Z,26.20
2022-07-30T01:51:25.218Z,24.30
2022-07-30T05:16:49.379Z,24.30
2022-07-30T05:19:18.777Z,28.80
2022-07-30T05:24:16.088Z,29.00
2022-07-30T05:26:45.701Z,29.50
2022-07-30T05:29:19.598Z,29.90
2022-07-30T05:31:48.736Z,29.90
2022-07-30T05:34:17.213Z,30.10
2022-07-30T05:36:45.691Z,30.30
2022-07-30T05:41:42.360Z,30.50
2022-07-30T05:44:11.877Z,30.90
2022-07-30T05:46:40.123Z,30.90
2022-07-30T05:49:08.990Z,31.00
2022-07-30T05:51:37.335Z,31.20
2022-07-30T05:54:05.804Z,31.20
2022-07-30T05:56:34.007Z,31.10
2022-07-30T05:59:02.235Z,31.00
2022-07-30T06:01:31.791Z,30.90
2022-07-30T06:04:00.106Z,30.70
2022-07-30T06:06:28.311Z,30.50
2022-07-30T06:08:56.437Z,30.30
2022-07-30T06:11:24.605Z,30.20
2022-07-30T06:13:52.766Z,30.00
2022-07-30T06:16:20.970Z,29.90
2022-07-30T06:18:50.613Z,29.70
2022-07-30T06:21:18.771Z,29.60
2022-07-30T06:23:46.948Z,29.50
2022-07-30T06:26:15.405Z,29.40
2022-07-30T06:28:43.542Z,29.30
2022-07-30T06:31:11.704Z,29.20
2022-07-30T06:33:40.038Z,29.10
2022-07-30T06:36:14.187Z,28.90
2022-07-30T06:38:42.877Z,28.90
2022-07-30T06:41:11.225Z,28.80
2022-07-30T06:43:39.572Z,28.70
2022-07-30T06:46:07.819Z,28.60
2022-07-30T06:48:37.443Z,28.40
2022-07-30T06:51:05.770Z,28.40
2022-07-30T06:53:39.604Z,28.30
2022-07-30T06:56:10.942Z,28.20
2022-07-30T06:58:39.364Z,28.20
2022-07-30T07:01:11.316Z,28.10
2022-07-30T07:03:40.865Z,28.00
2022-07-30T07:06:09.839Z,28.00
2022-07-30T07:08:39.586Z,28.00
2022-07-30T07:11:07.762Z,27.90
2022-07-30T07:13:35.956Z,27.90
2022-07-30T07:16:04.287Z,27.80
2022-07-30T07:18:32.506Z,27.80
2022-07-30T07:21:00.697Z,27.80
2022-07-30T07:23:36.409Z,27.70
2022-07-30T07:26:12.367Z,27.70
2022-07-30T07:28:41.321Z,27.60
2022-07-30T07:31:11.133Z,27.60
2022-07-30T10:25:49.266Z,27.50
